Ridgecrest, CA (93555)

10:46 AM PDT on August 30, 2014 (GMT -0700)
Ridgecrest Heights, CA 93555 | Change Station
CLOSE
Current Station
Personal Weather Station
Location: Ridgecrest, CA
Elevation: 2392 ft
Nearby Weather Stations

Elev 2392 ft 35.60 °N, 117.70 °W | Updated 3 seconds ago

Clear
Clear
92.9 °F
Feels Like 88 °F
N
0.0
Wind Variable Wind from NE
Gusts 2.0 mph

Today
High -- | Low -- °F
--% Chance of Precip.
Yesterday
High -- | Low -- °F
Precip. -- in
6:21 AM 7:20 PM
Waxing Crescent, 23% visible
Pressure 29.81 in
Visibility 10.0 miles
Clouds Clear
Heat Index 88 °F
Dew Point 33 °F
Humidity 12%
Rainfall 0.00 in
Snow Depth Not available.
UV 6 out of 12
Pollen 9.80 out of 12
Air Quality Not available.
Flu Activity Not available.
METAR KNID 301656Z AUTO 00000KT 10SM CLR 30/03 A2988 RMK AO2 SLP092 T03000033

More Conditions Fewer Conditions

Pressure 29.81 in
Visibility 10.0 miles
Clouds Clear
Heat Index 88 °F
Dew Point 33 °F
Humidity 12%
Rainfall 0.00 in
Snow Depth Not available.
UV 6 out of 12
Pollen 9.80 out of 12
Air Quality Not available.
Flu Activity Not available.
METAR KNID 301656Z AUTO 00000KT 10SM CLR 30/03 A2988 RMK AO2 SLP092 T03000033

More Conditions Fewer Conditions

10-Day Weather Forecast

Almanac

Astronomy

Aug. 30, 2014 Rise Set
Actual Time 6:21 AM PDT 7:20 PM PDT
Civil Twilight 5:55 AM PDT 7:46 PM PDT
Nautical Twilight 5:24 AM PDT 8:17 PM PDT
Astronomical Twilight 4:52 AM PDT 8:49 PM PDT
Moon 11:02 AM PDT 10:09 PM PDT
Length of Visible Light 13h 51m
Length of Day
12h 59m
Tomorrow will be 2m 8s shorter.
Waxing Crescent, 23% of the Moon is Illuminated
Today
Waxing Crescent
Sep 2
First Quarter
Sep 8
Full
Sep 15
Last Quarter
Sep 24
New

Today's Extremes

State Highs State Lows

Community

WunderPhotos

Upload Photos

1,748,581 photos uploaded!

WunderBlogs® & News

Nearby

Snow Depth

Station Depth Elevation
Leavitt Lake 0 in 9400 ft
Leavitt Meadows 1 in 7200 ft
Summit Meadow 1 in 9122 ft
Monitor Pass 0 in 8350 ft
Forestdale Creek 0 in 8029 ft

Earthquake Activity

City Distance Mag. Time & Date
Malibu, California 152 miles 2.5 8:11 AM PDT
2014-08-30
Orange Cove, California 111 miles 2.5 7:48 AM PDT
2014-08-29
Minimum magnitude displayed is 2.5.

Coastal Water Temperatures

Place Temperature
No Stations Reporting

Nearby Weather Stations